Time;durP1;ratioP1;P1;durP2;ratioP2;P2;SDS_P1;SDS_P2;PMS_P1;PMS_P2;Temp;Humidity;BMP_temperature;BMP_pressure;BME280_temperature;BME280_humidity;BME280_pressure;Samples;Min_cycle;Max_cycle;Signal;HPM_P1;HPM_P2
2023/05/19 00:01:46;;;;;;;9.07;3.10;;;;;;;;;;4986143;28;20241;-73
2023/05/19 00:04:13;;;;;;;8.47;3.47;;;;;;;;;;4985279;28;20706;-73
2023/05/19 00:06:40;;;;;;;8.20;3.63;;;;;;;;;;4981140;28;20223;-73
2023/05/19 00:09:06;;;;;;;9.03;3.47;;;;;;;;;;4983523;28;20254;-73
2023/05/19 00:11:32;;;;;;;5.70;3.53;;;;;;;;;;4990218;28;20665;-73
2023/05/19 00:13:58;;;;;;;5.50;3.23;;;;;;;;;;4986814;28;20183;-73
2023/05/19 00:16:24;;;;;;;5.67;3.70;;;;;;;;;;5006974;22;20603;-69
2023/05/19 00:18:50;;;;;;;12.17;4.57;;;;;;;;;;5010795;28;20233;-69
2023/05/19 00:21:15;;;;;;;9.23;3.57;;;;;;;;;;5012539;28;20190;-69
2023/05/19 00:23:41;;;;;;;3.47;3.17;;;;;;;;;;5002046;28;20183;-69
2023/05/19 00:26:06;;;;;;;8.73;3.37;;;;;;;;;;4998899;28;20516;-69
2023/05/19 00:28:31;;;;;;;8.63;3.43;;;;;;;;;;5004494;28;20183;-69
2023/05/19 00:30:56;;;;;;;5.23;4.10;;;;;;;;;;5002295;28;20171;-70
2023/05/19 00:33:21;;;;;;;7.70;4.30;;;;;;;;;;5002727;28;20178;-70
2023/05/19 00:35:47;;;;;;;6.97;3.63;;;;;;;;;;5002303;28;20229;-69
2023/05/19 00:38:12;;;;;;;5.90;3.77;;;;;;;;;;5000202;28;20183;-70
2023/05/19 00:40:37;;;;;;;4.77;3.27;;;;;;;;;;5001145;28;20202;-69
2023/05/19 00:43:04;;;;;;;6.27;4.00;;;;;;;;;;5000331;28;20186;-69
2023/05/19 00:45:29;;;;;;;7.20;4.50;;;;;;;;;;5001723;28;20668;-69
2023/05/19 00:47:55;;;;;;;8.63;3.53;;;;;;;;;;5002393;28;20180;-69
2023/05/19 00:50:20;;;;;;;7.20;3.57;;;;;;;;;;5012578;28;20225;-69
2023/05/19 00:52:45;;;;;;;11.60;5.30;;;;;;;;;;5013290;28;20186;-69
2023/05/19 00:55:11;;;;;;;9.37;3.80;;;;;;;;;;5012862;28;20544;-69
2023/05/19 00:57:36;;;;;;;5.53;3.67;;;;;;;;;;5011669;28;20560;-69
2023/05/19 01:00:02;;;;;;;7.97;3.70;;;;;;;;;;5011573;28;20702;-69
2023/05/19 01:02:28;;;;;;;7.00;3.90;;;;;;;;;;5009805;28;20629;-69
2023/05/19 01:04:55;;;;;;;4.33;3.10;;;;;;;;;;5012575;28;20175;-69
2023/05/19 01:07:22;;;;;;;8.70;4.10;;;;;;;;;;5011314;28;20198;-69
2023/05/19 01:09:47;;;;;;;5.67;3.57;;;;;;;;;;5011252;28;20179;-69
2023/05/19 01:12:12;;;;;;;6.07;4.07;;;;;;;;;;5005779;28;20554;-69
2023/05/19 01:14:38;;;;;;;6.13;4.40;;;;;;;;;;5008362;28;20171;-69
2023/05/19 01:17:05;;;;;;;7.33;4.00;;;;;;;;;;5012377;28;20262;-69
2023/05/19 01:19:46;;;;;;;7.23;3.60;;;;;;;;;;5008467;28;20215;-69
2023/05/19 01:22:29;;;;;;;6.43;4.00;;;;;;;;;;5004796;28;20273;-70
2023/05/19 01:25:15;;;;;;;6.13;3.90;;;;;;;;;;5003057;28;20183;-70
2023/05/19 01:27:43;;;;;;;7.50;3.70;;;;;;;;;;5004015;28;20579;-70
2023/05/19 01:30:25;;;;;;;10.90;3.23;;;;;;;;;;5010205;28;20185;-70
2023/05/19 01:32:55;;;;;;;5.57;3.53;;;;;;;;;;5010185;28;20317;-68
2023/05/19 01:35:24;;;;;;;8.93;4.03;;;;;;;;;;5008387;28;20262;-69
2023/05/19 01:37:51;;;;;;;10.83;4.87;;;;;;;;;;5004722;28;20182;-69
2023/05/19 01:40:17;;;;;;;6.30;3.80;;;;;;;;;;5003957;28;20225;-69
2023/05/19 01:42:44;;;;;;;9.93;4.33;;;;;;;;;;5010571;28;20179;-69
2023/05/19 01:45:10;;;;;;;10.93;4.20;;;;;;;;;;5009097;28;20211;-69
2023/05/19 01:47:38;;;;;;;9.23;3.93;;;;;;;;;;5009550;28;20736;-69
2023/05/19 01:50:04;;;;;;;11.97;3.63;;;;;;;;;;5009963;28;20186;-69
2023/05/19 01:52:29;;;;;;;8.00;4.63;;;;;;;;;;5003441;28;20237;-69
2023/05/19 01:54:54;;;;;;;10.73;4.50;;;;;;;;;;5000744;28;20242;-69
2023/05/19 01:57:26;;;;;;;7.57;4.30;;;;;;;;;;4994762;28;20268;-69
2023/05/19 01:59:57;;;;;;;9.43;4.53;;;;;;;;;;5004358;28;20202;-69
2023/05/19 02:02:28;;;;;;;11.23;4.90;;;;;;;;;;5005262;28;20175;-69
2023/05/19 02:04:58;;;;;;;9.00;3.87;;;;;;;;;;5002504;28;20184;-69
2023/05/19 02:07:26;;;;;;;7.23;3.47;;;;;;;;;;5009879;28;20198;-69
2023/05/19 02:09:58;;;;;;;6.27;3.90;;;;;;;;;;5015740;28;20592;-69
2023/05/19 02:12:23;;;;;;;10.00;4.30;;;;;;;;;;5008256;28;20206;-69
2023/05/19 02:14:51;;;;;;;9.13;4.27;;;;;;;;;;5009717;28;20218;-69
2023/05/19 02:17:17;;;;;;;10.47;4.17;;;;;;;;;;5008733;28;20710;-69
2023/05/19 02:19:42;;;;;;;9.17;4.47;;;;;;;;;;5013406;28;20203;-69
2023/05/19 02:22:08;;;;;;;11.73;4.70;;;;;;;;;;5004034;28;20175;-69
2023/05/19 02:24:33;;;;;;;10.53;3.93;;;;;;;;;;4999818;28;20194;-69
2023/05/19 02:26:58;;;;;;;8.43;3.90;;;;;;;;;;5007794;28;20194;-69
2023/05/19 02:29:23;;;;;;;7.10;4.43;;;;;;;;;;5001089;28;20194;-69
2023/05/19 02:31:49;;;;;;;9.07;4.60;;;;;;;;;;5003092;28;20641;-70
2023/05/19 02:34:14;;;;;;;6.60;3.90;;;;;;;;;;5008395;28;20195;-69
2023/05/19 02:36:41;;;;;;;11.30;5.07;;;;;;;;;;5011590;28;20621;-69
2023/05/19 02:39:07;;;;;;;6.70;4.50;;;;;;;;;;5008143;28;20203;-69
2023/05/19 02:41:32;;;;;;;8.23;4.77;;;;;;;;;;4998644;28;20664;-69
2023/05/19 02:43:58;;;;;;;6.63;4.90;;;;;;;;;;4999622;28;20175;-70
2023/05/19 02:46:24;;;;;;;12.13;5.30;;;;;;;;;;4993463;28;20202;-69
2023/05/19 02:48:50;;;;;;;9.23;5.10;;;;;;;;;;5002044;28;20657;-69
2023/05/19 02:51:15;;;;;;;7.37;5.10;;;;;;;;;;5006623;28;20193;-69
2023/05/19 02:53:40;;;;;;;9.37;4.27;;;;;;;;;;5004530;28;20294;-69
2023/05/19 02:56:05;;;;;;;9.07;4.07;;;;;;;;;;5008892;28;20699;-69
2023/05/19 02:58:30;;;;;;;12.27;4.00;;;;;;;;;;5008977;28;20258;-69
2023/05/19 03:00:56;;;;;;;10.57;5.00;;;;;;;;;;5011218;28;20202;-69
2023/05/19 03:03:21;;;;;;;9.03;4.77;;;;;;;;;;5003014;28;20260;-69
2023/05/19 03:05:46;;;;;;;10.70;5.27;;;;;;;;;;5007917;28;20198;-69
2023/05/19 03:08:12;;;;;;;15.13;5.10;;;;;;;;;;5007810;28;20653;-69
2023/05/19 03:10:37;;;;;;;12.50;5.20;;;;;;;;;;5012820;28;20190;-69
2023/05/19 03:13:02;;;;;;;8.87;5.40;;;;;;;;;;5012986;28;20224;-70
2023/05/19 03:15:27;;;;;;;9.13;4.90;;;;;;;;;;5015513;28;20190;-69
2023/05/19 03:17:52;;;;;;;10.67;4.67;;;;;;;;;;5014902;28;20190;-69
2023/05/19 03:20:19;;;;;;;7.90;4.77;;;;;;;;;;5012542;28;20258;-69
2023/05/19 03:22:44;;;;;;;12.60;5.30;;;;;;;;;;5014680;28;20253;-69
2023/05/19 03:25:09;;;;;;;12.00;4.70;;;;;;;;;;5003564;28;20215;-69
2023/05/19 03:27:34;;;;;;;11.93;5.07;;;;;;;;;;5011755;28;20232;-69
2023/05/19 03:30:00;;;;;;;10.23;5.37;;;;;;;;;;5017749;28;21662;-69
2023/05/19 03:32:25;;;;;;;13.97;5.67;;;;;;;;;;5017885;28;20171;-69
2023/05/19 03:34:50;;;;;;;10.60;5.20;;;;;;;;;;5004499;28;20187;-69
2023/05/19 03:37:15;;;;;;;10.30;5.33;;;;;;;;;;5016603;28;20217;-68
2023/05/19 03:39:40;;;;;;;10.90;5.60;;;;;;;;;;5008696;28;20204;-69
2023/05/19 03:42:06;;;;;;;9.23;5.33;;;;;;;;;;5016239;28;20556;-69
2023/05/19 03:44:31;;;;;;;11.67;5.43;;;;;;;;;;5020841;28;20186;-69
2023/05/19 03:46:56;;;;;;;20.83;6.37;;;;;;;;;;5016597;28;20241;-69
2023/05/19 03:49:21;;;;;;;12.97;5.37;;;;;;;;;;5013613;28;20546;-69
2023/05/19 03:51:46;;;;;;;10.83;5.70;;;;;;;;;;5008713;28;20171;-69
2023/05/19 03:54:12;;;;;;;14.57;5.67;;;;;;;;;;5012309;28;20182;-69
2023/05/19 03:56:38;;;;;;;10.20;5.20;;;;;;;;;;5017839;28;20680;-69
2023/05/19 03:59:05;;;;;;;14.37;5.63;;;;;;;;;;5010601;28;20688;-69
2023/05/19 04:01:30;;;;;;;8.67;5.20;;;;;;;;;;5016041;28;20175;-69
2023/05/19 04:03:55;;;;;;;8.20;5.53;;;;;;;;;;5015171;28;20209;-69
2023/05/19 04:06:20;;;;;;;13.20;5.70;;;;;;;;;;5016541;28;20249;-69
2023/05/19 04:08:46;;;;;;;12.30;6.10;;;;;;;;;;5017228;28;20202;-69
2023/05/19 04:11:11;;;;;;;12.63;5.27;;;;;;;;;;5004057;28;20175;-69
2023/05/19 04:13:36;;;;;;;12.57;5.57;;;;;;;;;;5013334;28;20174;-69
2023/05/19 04:16:01;;;;;;;13.60;5.13;;;;;;;;;;5010404;28;20202;-69
2023/05/19 04:18:27;;;;;;;11.37;5.43;;;;;;;;;;5009568;28;20599;-69
2023/05/19 04:20:52;;;;;;;10.27;5.33;;;;;;;;;;5009708;28;20253;-69
2023/05/19 04:23:17;;;;;;;12.10;6.00;;;;;;;;;;5009079;28;20580;-69
2023/05/19 04:25:42;;;;;;;9.27;6.23;;;;;;;;;;5010017;28;20199;-69
2023/05/19 04:28:08;;;;;;;16.20;5.63;;;;;;;;;;5007022;28;20187;-69
2023/05/19 04:30:33;;;;;;;15.20;6.07;;;;;;;;;;5007279;28;20191;-69
2023/05/19 04:32:59;;;;;;;9.43;5.67;;;;;;;;;;5008441;28;20263;-69
2023/05/19 04:35:25;;;;;;;14.07;6.33;;;;;;;;;;5003141;28;20193;-69
2023/05/19 04:37:53;;;;;;;11.10;5.43;;;;;;;;;;5006467;28;20179;-69
2023/05/19 04:40:19;;;;;;;10.13;6.30;;;;;;;;;;5002183;28;20216;-69
2023/05/19 04:42:45;;;;;;;12.33;5.13;;;;;;;;;;5013814;28;20167;-69
2023/05/19 04:45:12;;;;;;;7.27;5.07;;;;;;;;;;5004497;28;20179;-69
2023/05/19 04:47:38;;;;;;;7.37;5.27;;;;;;;;;;4999578;28;20692;-69
2023/05/19 04:50:03;;;;;;;6.73;4.47;;;;;;;;;;5004301;28;20175;-70
2023/05/19 04:52:29;;;;;;;9.47;4.87;;;;;;;;;;5002872;28;20266;-69
2023/05/19 04:54:55;;;;;;;11.97;5.17;;;;;;;;;;5005449;28;20233;-69
2023/05/19 04:57:20;;;;;;;7.47;4.87;;;;;;;;;;5005435;28;20204;-69
2023/05/19 04:59:45;;;;;;;11.53;6.03;;;;;;;;;;5002353;28;20238;-69
2023/05/19 05:02:10;;;;;;;13.20;5.17;;;;;;;;;;5007502;28;20202;-68
2023/05/19 05:04:36;;;;;;;13.00;5.17;;;;;;;;;;5007134;28;20202;-69
2023/05/19 05:07:01;;;;;;;7.43;4.57;;;;;;;;;;5012854;28;20222;-69
2023/05/19 05:09:26;;;;;;;12.70;5.53;;;;;;;;;;5003099;28;20187;-69
2023/05/19 05:11:52;;;;;;;13.73;6.37;;;;;;;;;;5009779;28;20191;-69
2023/05/19 05:14:17;;;;;;;10.70;5.20;;;;;;;;;;5010723;28;20549;-69
2023/05/19 05:16:42;;;;;;;12.63;5.27;;;;;;;;;;5006562;28;20214;-69
2023/05/19 05:19:08;;;;;;;9.43;5.30;;;;;;;;;;5009501;28;20498;-69
2023/05/19 05:21:33;;;;;;;11.57;5.27;;;;;;;;;;5011524;28;20183;-69
2023/05/19 05:23:59;;;;;;;12.43;5.20;;;;;;;;;;5006860;28;20721;-70
2023/05/19 05:26:27;;;;;;;12.13;4.90;;;;;;;;;;5010622;28;20195;-69
2023/05/19 05:28:52;;;;;;;8.90;4.70;;;;;;;;;;5011010;28;20637;-70
2023/05/19 05:31:17;;;;;;;10.07;5.30;;;;;;;;;;5011304;28;20175;-70
2023/05/19 05:33:43;;;;;;;8.43;4.47;;;;;;;;;;5000318;28;20171;-70
2023/05/19 05:36:08;;;;;;;11.53;5.27;;;;;;;;;;5001730;28;20222;-70
2023/05/19 05:38:33;;;;;;;12.07;4.93;;;;;;;;;;5002136;28;20183;-70
2023/05/19 05:41:01;;;;;;;9.30;4.43;;;;;;;;;;5003159;28;20648;-70
2023/05/19 05:43:26;;;;;;;7.13;4.60;;;;;;;;;;5001239;28;20171;-70
2023/05/19 05:45:51;;;;;;;11.33;4.90;;;;;;;;;;5002016;28;20766;-70
2023/05/19 05:48:17;;;;;;;11.27;4.60;;;;;;;;;;5004041;28;20171;-70
2023/05/19 05:50:43;;;;;;;10.23;5.37;;;;;;;;;;5003281;28;20739;-70
2023/05/19 05:53:08;;;;;;;8.50;5.10;;;;;;;;;;5000834;28;20187;-70
2023/05/19 05:55:33;;;;;;;10.53;5.53;;;;;;;;;;5002434;28;20692;-70
2023/05/19 05:58:00;;;;;;;9.73;4.60;;;;;;;;;;5001390;28;20660;-70
2023/05/19 06:00:27;;;;;;;10.60;5.40;;;;;;;;;;4994118;28;20540;-70
2023/05/19 06:02:52;;;;;;;7.00;3.73;;;;;;;;;;5000284;28;20202;-70
2023/05/19 06:05:17;;;;;;;7.10;4.00;;;;;;;;;;5001041;28;20226;-70
2023/05/19 06:07:43;;;;;;;7.00;4.13;;;;;;;;;;5011848;28;20163;-68
2023/05/19 06:10:08;;;;;;;10.00;4.73;;;;;;;;;;5003390;28;20585;-69
2023/05/19 06:12:34;;;;;;;7.40;4.47;;;;;;;;;;5009672;28;20642;-69
2023/05/19 06:15:00;;;;;;;8.80;4.20;;;;;;;;;;5008050;28;20322;-68
2023/05/19 06:17:26;;;;;;;9.73;4.20;;;;;;;;;;5006069;28;20573;-71
2023/05/19 06:19:51;;;;;;;8.65;4.28;;;;;;;;;;5004541;28;20209;-69
2023/05/19 06:22:16;;;;;;;12.67;4.87;;;;;;;;;;5001257;28;20261;-71
2023/05/19 06:24:41;;;;;;;5.88;3.60;;;;;;;;;;5010160;28;20561;-69
2023/05/19 06:27:06;;;;;;;7.43;4.45;;;;;;;;;;5006415;28;20684;-69
2023/05/19 06:29:32;;;;;;;9.93;4.63;;;;;;;;;;5012161;28;20182;-71
2023/05/19 06:31:57;;;;;;;6.85;4.45;;;;;;;;;;5006076;28;20270;-70
2023/05/19 06:34:23;;;;;;;7.82;3.88;;;;;;;;;;5005189;28;20179;-69
2023/05/19 06:36:48;;;;;;;8.82;4.40;;;;;;;;;;5007313;28;20271;-69
2023/05/19 06:39:13;;;;;;;5.45;3.95;;;;;;;;;;5009232;28;20210;-69
2023/05/19 06:41:38;;;;;;;6.00;3.47;;;;;;;;;;5001644;28;20172;-69
2023/05/19 06:44:05;;;;;;;8.45;4.13;;;;;;;;;;5004667;28;20179;-70
2023/05/19 06:46:30;;;;;;;6.63;4.00;;;;;;;;;;5008363;28;20716;-69
2023/05/19 06:48:56;;;;;;;7.47;4.03;;;;;;;;;;5010094;28;20211;-69
2023/05/19 06:51:21;;;;;;;7.18;3.63;;;;;;;;;;5009586;28;20641;-69
2023/05/19 06:53:47;;;;;;;8.48;4.07;;;;;;;;;;5006527;28;20521;-69
2023/05/19 06:56:13;;;;;;;10.95;4.75;;;;;;;;;;5011091;28;20242;-70
2023/05/19 06:58:38;;;;;;;6.82;4.00;;;;;;;;;;5006838;28;20182;-69
2023/05/19 07:01:04;;;;;;;5.13;3.85;;;;;;;;;;5003638;28;20253;-69
2023/05/19 07:03:29;;;;;;;5.25;3.90;;;;;;;;;;5001761;28;20175;-68
2023/05/19 07:05:55;;;;;;;4.22;3.45;;;;;;;;;;5004747;28;20198;-68
2023/05/19 07:08:20;;;;;;;6.40;3.65;;;;;;;;;;4999327;28;20179;-69
2023/05/19 07:10:45;;;;;;;10.02;4.75;;;;;;;;;;5007456;28;20175;-69
2023/05/19 07:13:10;;;;;;;5.70;3.65;;;;;;;;;;5011121;28;20572;-69
2023/05/19 07:15:35;;;;;;;7.15;3.42;;;;;;;;;;4999681;28;20246;-68
2023/05/19 07:18:01;;;;;;;7.72;3.22;;;;;;;;;;5012873;28;20187;-68
2023/05/19 07:20:26;;;;;;;5.88;2.85;;;;;;;;;;5006308;28;20579;-69
2023/05/19 07:22:51;;;;;;;5.75;3.08;;;;;;;;;;5015907;28;20183;-69
2023/05/19 07:25:16;;;;;;;6.78;2.92;;;;;;;;;;5006917;28;20306;-69
2023/05/19 07:27:41;;;;;;;4.55;2.63;;;;;;;;;;5006001;28;20187;-69
2023/05/19 07:30:07;;;;;;;5.03;3.35;;;;;;;;;;5009950;28;20175;-69
2023/05/19 07:32:32;;;;;;;5.70;2.53;;;;;;;;;;5003184;28;20197;-69
2023/05/19 07:34:57;;;;;;;6.55;2.63;;;;;;;;;;4999909;28;20609;-69
2023/05/19 07:37:23;;;;;;;7.80;3.35;;;;;;;;;;5000373;28;20632;-69
2023/05/19 07:39:48;;;;;;;6.50;3.08;;;;;;;;;;4998114;28;20195;-69
2023/05/19 07:42:13;;;;;;;8.93;3.22;;;;;;;;;;5001146;28;20168;-69
2023/05/19 07:44:38;;;;;;;5.25;2.55;;;;;;;;;;4998281;28;20182;-69
2023/05/19 07:47:04;;;;;;;6.63;2.53;;;;;;;;;;5000064;28;20211;-69
2023/05/19 07:49:29;;;;;;;7.53;2.72;;;;;;;;;;4998563;28;20221;-70
2023/05/19 07:51:55;;;;;;;4.63;2.65;;;;;;;;;;5003487;28;20191;-69
2023/05/19 07:54:20;;;;;;;5.43;2.70;;;;;;;;;;5007143;28;20183;-69
2023/05/19 07:56:46;;;;;;;6.97;2.80;;;;;;;;;;5004621;28;21150;-69
2023/05/19 07:59:12;;;;;;;5.28;2.85;;;;;;;;;;5003453;28;20242;-69
2023/05/19 08:01:37;;;;;;;5.75;2.97;;;;;;;;;;5003351;28;20218;-69
2023/05/19 08:04:02;;;;;;;8.60;2.63;;;;;;;;;;4998856;28;20176;-69
2023/05/19 08:06:28;;;;;;;8.52;2.65;;;;;;;;;;5008420;28;20211;-70
2023/05/19 08:08:54;;;;;;;7.65;2.53;;;;;;;;;;5007398;28;20181;-70
2023/05/19 08:11:20;;;;;;;3.05;2.30;;;;;;;;;;5011836;28;20176;-69
2023/05/19 08:13:47;;;;;;;5.22;2.25;;;;;;;;;;5001954;28;20183;-69
2023/05/19 08:16:13;;;;;;;4.45;2.08;;;;;;;;;;5002460;28;20218;-69
2023/05/19 08:18:38;;;;;;;6.60;3.00;;;;;;;;;;4996230;28;20186;-70
2023/05/19 08:21:03;;;;;;;10.70;2.75;;;;;;;;;;5000293;28;20225;-70
2023/05/19 08:23:28;;;;;;;9.20;2.70;;;;;;;;;;5000281;28;20206;-69
2023/05/19 08:25:53;;;;;;;5.43;2.10;;;;;;;;;;5000150;28;21424;-70
2023/05/19 08:28:19;;;;;;;4.63;2.78;;;;;;;;;;5005383;28;22639;-70
2023/05/19 08:30:44;;;;;;;3.92;1.98;;;;;;;;;;5001119;28;20252;-70
2023/05/19 08:33:09;;;;;;;4.50;2.65;;;;;;;;;;5000623;28;20180;-70
2023/05/19 08:35:34;;;;;;;7.65;2.50;;;;;;;;;;5002710;28;20206;-69
2023/05/19 08:38:00;;;;;;;3.47;1.85;;;;;;;;;;5002904;28;20663;-69
2023/05/19 08:40:27;;;;;;;4.18;1.58;;;;;;;;;;5001967;28;20241;-70
2023/05/19 08:42:53;;;;;;;5.97;1.50;;;;;;;;;;5001427;28;20664;-70
2023/05/19 08:45:18;;;;;;;5.43;1.52;;;;;;;;;;5003026;28;20179;-69
2023/05/19 08:47:47;;;;;;;6.05;1.98;;;;;;;;;;5003603;28;20194;-69
2023/05/19 08:50:15;;;;;;;4.75;1.58;;;;;;;;;;5003388;28;21790;-69
2023/05/19 08:52:51;;;;;;;3.72;1.27;;;;;;;;;;5001897;28;20267;-70
2023/05/19 08:55:32;;;;;;;7.00;1.35;;;;;;;;;;5002249;28;20297;-69
2023/05/19 08:57:58;;;;;;;5.18;1.27;;;;;;;;;;5002251;28;20710;-69
2023/05/19 09:00:23;;;;;;;3.67;1.35;;;;;;;;;;5002966;28;20210;-69
2023/05/19 09:02:49;;;;;;;2.30;1.25;;;;;;;;;;5001768;28;20183;-68
2023/05/19 09:05:16;;;;;;;3.33;1.92;;;;;;;;;;5001993;28;20245;-70
2023/05/19 09:07:42;;;;;;;5.90;1.52;;;;;;;;;;5002110;28;20190;-68
2023/05/19 09:10:07;;;;;;;4.30;1.80;;;;;;;;;;5001733;28;20637;-69
2023/05/19 09:12:33;;;;;;;3.45;1.27;;;;;;;;;;5000463;28;20233;-69
2023/05/19 09:14:58;;;;;;;3.60;1.27;;;;;;;;;;5002076;28;20337;-68
2023/05/19 09:17:23;;;;;;;3.03;1.10;;;;;;;;;;5001960;28;20214;-68
2023/05/19 09:19:50;;;;;;;4.00;1.50;;;;;;;;;;5002097;28;20889;-70
2023/05/19 09:22:17;;;;;;;3.35;1.40;;;;;;;;;;5001637;28;20281;-69
2023/05/19 09:24:43;;;;;;;4.88;1.63;;;;;;;;;;5001929;28;20183;-70
2023/05/19 09:27:08;;;;;;;5.33;1.73;;;;;;;;;;5001128;28;20218;-68
2023/05/19 09:29:33;;;;;;;4.23;1.90;;;;;;;;;;5002030;28;20433;-71
2023/05/19 09:32:03;;;;;;;3.75;1.63;;;;;;;;;;5002540;28;20520;-71
2023/05/19 09:34:29;;;;;;;5.60;1.95;;;;;;;;;;5002347;28;20179;-69
2023/05/19 09:36:54;;;;;;;7.43;2.53;;;;;;;;;;5003028;28;20207;-71
2023/05/19 09:39:20;;;;;;;5.53;1.98;;;;;;;;;;5001421;28;20290;-70
2023/05/19 09:41:46;;;;;;;4.97;1.90;;;;;;;;;;5007951;28;20720;-70
2023/05/19 09:44:32;;;;;;;7.80;2.80;;;;;;;;;;5011680;28;20179;-69
2023/05/19 09:46:57;;;;;;;10.25;1.75;;;;;;;;;;5011033;28;20199;-70
2023/05/19 09:49:24;;;;;;;8.02;2.70;;;;;;;;;;5011288;28;20182;-69
2023/05/19 09:51:59;;;;;;;7.78;2.17;;;;;;;;;;5006802;28;20178;-69
2023/05/19 09:54:25;;;;;;;3.00;1.30;;;;;;;;;;5009151;28;20170;-69
2023/05/19 09:56:51;;;;;;;2.47;1.55;;;;;;;;;;5000999;28;20341;-69
2023/05/19 09:59:17;;;;;;;5.22;1.75;;;;;;;;;;5000684;28;20185;-69
2023/05/19 10:01:45;;;;;;;3.63;1.90;;;;;;;;;;5001522;28;20166;-69
2023/05/19 10:04:11;;;;;;;5.75;1.17;;;;;;;;;;5000771;28;20186;-69
2023/05/19 10:06:36;;;;;;;5.65;1.75;;;;;;;;;;5001371;28;20226;-69
2023/05/19 10:09:02;;;;;;;6.85;2.38;;;;;;;;;;5002378;28;20206;-70
2023/05/19 10:11:28;;;;;;;6.60;1.92;;;;;;;;;;5001028;28;20261;-70
2023/05/19 10:13:54;;;;;;;3.65;1.88;;;;;;;;;;5000615;28;20199;-69
2023/05/19 10:16:20;;;;;;;3.65;1.80;;;;;;;;;;5001333;28;20304;-70
2023/05/19 10:18:46;;;;;;;4.50;1.70;;;;;;;;;;5001352;28;20676;-69
2023/05/19 10:21:11;;;;;;;7.93;2.05;;;;;;;;;;5001262;28;20227;-70
2023/05/19 10:23:37;;;;;;;1.67;1.10;;;;;;;;;;5007061;28;20313;-70
2023/05/19 10:26:03;;;;;;;3.42;1.52;;;;;;;;;;5006699;28;20239;-70
2023/05/19 10:28:39;;;;;;;3.33;2.03;;;;;;;;;;5000992;28;20258;-70
2023/05/19 10:31:06;;;;;;;5.15;2.08;;;;;;;;;;5001492;28;20600;-70
2023/05/19 10:33:36;;;;;;;1.25;1.15;;;;;;;;;;4992202;28;20190;-70
2023/05/19 10:36:11;;;;;;;2.10;1.60;;;;;;;;;;4996704;28;20211;-70
2023/05/19 10:38:37;;;;;;;6.30;1.70;;;;;;;;;;4997277;28;20186;-70
2023/05/19 10:41:15;;;;;;;2.90;1.20;;;;;;;;;;4997978;28;20203;-70
2023/05/19 10:43:46;;;;;;;5.43;1.60;;;;;;;;;;5001031;28;20197;-70
2023/05/19 10:46:11;;;;;;;5.70;1.73;;;;;;;;;;5001007;28;20218;-70
2023/05/19 10:48:37;;;;;;;7.25;2.42;;;;;;;;;;5010135;28;20791;-70
2023/05/19 10:51:02;;;;;;;4.53;1.60;;;;;;;;;;5000934;28;20217;-70
2023/05/19 10:53:31;;;;;;;3.97;1.50;;;;;;;;;;5014536;28;20944;-70
2023/05/19 10:55:57;;;;;;;5.68;1.63;;;;;;;;;;5000084;28;20202;-74
2023/05/19 10:58:38;;;;;;;12.32;2.78;;;;;;;;;;5005811;28;20175;-73
2023/05/19 11:01:13;;;;;;;4.50;1.80;;;;;;;;;;5008914;28;20206;-73
2023/05/19 11:03:45;;;;;;;4.78;1.80;;;;;;;;;;5009519;28;20301;-73
2023/05/19 11:06:16;;;;;;;4.78;2.13;;;;;;;;;;5002975;28;20781;-73
2023/05/19 11:08:42;;;;;;;4.22;1.88;;;;;;;;;;4998635;28;20535;-73
2023/05/19 11:11:15;;;;;;;3.35;1.77;;;;;;;;;;4999827;28;20276;-74
2023/05/19 11:13:42;;;;;;;4.10;1.92;;;;;;;;;;5000548;28;20210;-73
2023/05/19 11:16:08;;;;;;;4.50;1.50;;;;;;;;;;5000522;28;20219;-73
2023/05/19 11:18:33;;;;;;;5.65;2.03;;;;;;;;;;4999980;28;20182;-73
2023/05/19 11:21:00;;;;;;;3.92;1.77;;;;;;;;;;4999491;28;20241;-73
2023/05/19 11:23:26;;;;;;;4.78;2.05;;;;;;;;;;4998966;28;20286;-73
2023/05/19 11:25:53;;;;;;;2.30;1.63;;;;;;;;;;5017351;28;20734;-72
2023/05/19 11:28:19;;;;;;;4.80;2.08;;;;;;;;;;5012203;28;20451;-72
2023/05/19 11:30:45;;;;;;;3.40;1.40;;;;;;;;;;5013867;28;20179;-73
2023/05/19 11:33:12;;;;;;;2.78;1.30;;;;;;;;;;5013803;28;20174;-72
2023/05/19 11:35:37;;;;;;;9.40;1.90;;;;;;;;;;5011784;28;20199;-72
2023/05/19 11:38:04;;;;;;;7.22;1.63;;;;;;;;;;5011498;28;20232;-73
2023/05/19 11:40:29;;;;;;;3.15;2.13;;;;;;;;;;5013593;28;20195;-73
2023/05/19 11:42:54;;;;;;;4.22;1.67;;;;;;;;;;5013182;28;20189;-72
2023/05/19 11:45:26;;;;;;;2.47;1.42;;;;;;;;;;5008110;28;20184;-73
2023/05/19 11:47:51;;;;;;;5.38;1.55;;;;;;;;;;5007491;28;20190;-72
2023/05/19 11:50:16;;;;;;;3.78;1.58;;;;;;;;;;5006610;28;20184;-73
2023/05/19 11:52:46;;;;;;;4.45;1.83;;;;;;;;;;5010271;28;20182;-72
2023/05/19 11:55:15;;;;;;;5.53;1.98;;;;;;;;;;5011238;28;20175;-72
2023/05/19 11:57:40;;;;;;;3.55;1.70;;;;;;;;;;5011093;28;20219;-72
2023/05/19 12:00:06;;;;;;;6.07;1.48;;;;;;;;;;5008584;28;20316;-72
2023/05/19 12:02:32;;;;;;;6.40;2.25;;;;;;;;;;5014110;28;20171;-72
2023/05/19 12:04:57;;;;;;;2.37;1.70;;;;;;;;;;5013125;28;20184;-72
2023/05/19 12:07:22;;;;;;;6.03;2.30;;;;;;;;;;5014036;28;20804;-73
2023/05/19 12:09:48;;;;;;;5.13;2.10;;;;;;;;;;5012308;28;20513;-72
2023/05/19 12:12:20;;;;;;;3.30;1.80;;;;;;;;;;5011535;28;20202;-73
2023/05/19 12:14:46;;;;;;;2.53;1.38;;;;;;;;;;5012020;28;20262;-73
2023/05/19 12:17:12;;;;;;;3.05;1.25;;;;;;;;;;5010512;28;20298;-73
2023/05/19 12:19:37;;;;;;;3.78;1.67;;;;;;;;;;5012191;28;20191;-73
2023/05/19 12:22:04;;;;;;;3.53;1.38;;;;;;;;;;5012239;28;20671;-73
2023/05/19 12:24:29;;;;;;;4.45;1.90;;;;;;;;;;5010103;28;20179;-72
2023/05/19 12:27:18;;;;;;;4.85;1.70;;;;;;;;;;5012830;28;20206;-72
2023/05/19 12:29:47;;;;;;;2.28;1.30;;;;;;;;;;4992464;28;20192;-72
2023/05/19 12:32:13;;;;;;;3.00;1.52;;;;;;;;;;5011855;28;20672;-72
2023/05/19 12:34:38;;;;;;;3.00;1.80;;;;;;;;;;5006122;28;20195;-72
2023/05/19 12:37:04;;;;;;;4.70;1.70;;;;;;;;;;5007774;28;20616;-75
2023/05/19 12:39:29;;;;;;;6.47;1.70;;;;;;;;;;5000977;28;20190;-73
2023/05/19 12:42:01;;;;;;;2.95;1.77;;;;;;;;;;5000352;28;20266;-72
2023/05/19 12:44:27;;;;;;;2.30;1.42;;;;;;;;;;4999284;28;20558;-73
2023/05/19 12:46:52;;;;;;;5.03;1.80;;;;;;;;;;4991876;28;20202;-72
2023/05/19 12:49:17;;;;;;;5.50;2.00;;;;;;;;;;4991687;28;20455;-72
2023/05/19 12:51:49;;;;;;;8.10;1.70;;;;;;;;;;4992247;28;20448;-72
2023/05/19 12:54:17;;;;;;;2.47;1.60;;;;;;;;;;4987958;28;20428;-73
2023/05/19 12:56:48;;;;;;;4.93;1.92;;;;;;;;;;4988997;28;20199;-73
2023/05/19 12:59:19;;;;;;;5.00;1.60;;;;;;;;;;4989129;28;20179;-73
2023/05/19 13:01:44;;;;;;;3.92;1.67;;;;;;;;;;4989644;28;20240;-73
2023/05/19 13:04:10;;;;;;;4.33;1.57;;;;;;;;;;4989716;28;20182;-72
2023/05/19 13:06:35;;;;;;;4.97;1.53;;;;;;;;;;4990094;28;20833;-72
2023/05/19 13:09:00;;;;;;;4.17;1.30;;;;;;;;;;4989426;28;20478;-72
2023/05/19 13:11:25;;;;;;;2.97;1.67;;;;;;;;;;4986783;28;20487;-72
2023/05/19 13:13:50;;;;;;;3.07;1.73;;;;;;;;;;4988719;28;20437;-72
2023/05/19 13:16:16;;;;;;;4.17;1.87;;;;;;;;;;4987554;28;20615;-72
2023/05/19 13:18:41;;;;;;;3.57;1.63;;;;;;;;;;4992229;28;20460;-72
2023/05/19 13:21:06;;;;;;;5.45;1.98;;;;;;;;;;4990229;28;20494;-73
2023/05/19 13:23:31;;;;;;;3.30;1.40;;;;;;;;;;4985681;28;20179;-72
2023/05/19 13:25:56;;;;;;;2.77;1.40;;;;;;;;;;4998440;28;20250;-73
2023/05/19 13:28:22;;;;;;;8.40;2.33;;;;;;;;;;4994733;28;20849;-72
2023/05/19 13:30:48;;;;;;;4.35;1.58;;;;;;;;;;4992501;28;20665;-72
2023/05/19 13:33:13;;;;;;;2.80;1.75;;;;;;;;;;4994879;28;20198;-75
2023/05/19 13:35:39;;;;;;;3.97;1.90;;;;;;;;;;4987303;28;20211;-73
2023/05/19 13:38:10;;;;;;;5.10;1.73;;;;;;;;;;4987353;28;20551;-73
2023/05/19 13:40:35;;;;;;;5.45;1.73;;;;;;;;;;4990415;28;20205;-73
2023/05/19 13:43:01;;;;;;;5.55;2.58;;;;;;;;;;4985071;28;20583;-72
2023/05/19 13:45:26;;;;;;;5.68;1.70;;;;;;;;;;4985730;28;21048;-73
2023/05/19 13:47:52;;;;;;;3.83;1.88;;;;;;;;;;4992809;28;20186;-73
2023/05/19 13:50:17;;;;;;;5.13;2.13;;;;;;;;;;4991558;28;20287;-73
2023/05/19 13:52:42;;;;;;;6.60;2.10;;;;;;;;;;4989275;28;20455;-72
2023/05/19 13:55:07;;;;;;;4.13;1.70;;;;;;;;;;4988579;28;20668;-72
2023/05/19 13:57:33;;;;;;;5.05;2.45;;;;;;;;;;4988019;28;20603;-73
2023/05/19 13:59:59;;;;;;;4.88;2.03;;;;;;;;;;4989674;28;20209;-72
2023/05/19 14:02:24;;;;;;;5.88;2.17;;;;;;;;;;4988086;28;20479;-72
2023/05/19 14:04:49;;;;;;;9.32;2.45;;;;;;;;;;4989692;28;20183;-72
2023/05/19 14:07:15;;;;;;;4.57;2.35;;;;;;;;;;4988411;28;20246;-72
2023/05/19 14:09:40;;;;;;;5.35;2.45;;;;;;;;;;4987033;28;20684;-72
2023/05/19 14:12:06;;;;;;;5.60;2.22;;;;;;;;;;4986521;28;20581;-72
2023/05/19 14:14:31;;;;;;;5.97;2.20;;;;;;;;;;4988573;28;20257;-72
2023/05/19 14:16:56;;;;;;;5.05;1.75;;;;;;;;;;4990256;28;20258;-72
2023/05/19 14:19:22;;;;;;;3.83;2.07;;;;;;;;;;4988546;28;20257;-73
2023/05/19 14:21:48;;;;;;;3.22;1.98;;;;;;;;;;4987178;28;21090;-72
2023/05/19 14:24:14;;;;;;;4.13;1.88;;;;;;;;;;4992863;28;20190;-68
2023/05/19 14:26:39;;;;;;;4.47;2.10;;;;;;;;;;4993583;28;20776;-69
2023/05/19 14:29:04;;;;;;;8.68;1.98;;;;;;;;;;5002615;28;20571;-69
2023/05/19 14:31:30;;;;;;;5.45;2.15;;;;;;;;;;5012443;28;20190;-69
2023/05/19 14:33:55;;;;;;;5.40;1.80;;;;;;;;;;5009205;28;20190;-68
2023/05/19 14:36:20;;;;;;;7.67;2.27;;;;;;;;;;5008708;28;20436;-69